sensor_id;sensor_type;location;lat;lon;timestamp;pressure;altitude;pressure_sealevel;temperature;humidity
13705;BME280;6924;52.122;9.952;2023-06-22T00:00:49;100827.84;;;19.29;95.55
13705;BME280;6924;52.122;9.952;2023-06-22T00:03:17;100838.47;;;19.29;95.97
13705;BME280;6924;52.122;9.952;2023-06-22T00:05:44;100837.81;;;19.19;96.55
13705;BME280;6924;52.122;9.952;2023-06-22T00:08:11;100836.03;;;19.15;97.09
13705;BME280;6924;52.122;9.952;2023-06-22T00:10:37;100839.53;;;19.08;97.28
13705;BME280;6924;52.122;9.952;2023-06-22T00:13:06;100846.97;;;19.09;97.12
13705;BME280;6924;52.122;9.952;2023-06-22T00:15:35;100847.78;;;19.10;97.21
13705;BME280;6924;52.122;9.952;2023-06-22T00:18:02;100852.69;;;19.09;96.36
13705;BME280;6924;52.122;9.952;2023-06-22T00:20:28;100856.38;;;19.10;96.07
13705;BME280;6924;52.122;9.952;2023-06-22T00:22:56;100860.44;;;19.09;95.56
13705;BME280;6924;52.122;9.952;2023-06-22T00:25:23;100859.50;;;19.05;95.55
13705;BME280;6924;52.122;9.952;2023-06-22T00:27:50;100850.44;;;19.03;95.25
13705;BME280;6924;52.122;9.952;2023-06-22T00:30:17;100848.78;;;19.02;95.24
13705;BME280;6924;52.122;9.952;2023-06-22T00:32:45;100850.44;;;19.03;95.22
13705;BME280;6924;52.122;9.952;2023-06-22T00:35:12;100839.81;;;19.03;95.29
13705;BME280;6924;52.122;9.952;2023-06-22T00:37:39;100849.13;;;19.00;95.47
13705;BME280;6924;52.122;9.952;2023-06-22T00:40:08;100842.56;;;18.99;94.77
13705;BME280;6924;52.122;9.952;2023-06-22T00:42:36;100839.59;;;18.96;94.90
13705;BME280;6924;52.122;9.952;2023-06-22T00:45:03;100836.28;;;18.94;94.85
13705;BME280;6924;52.122;9.952;2023-06-22T00:47:30;100843.94;;;18.90;94.05
13705;BME280;6924;52.122;9.952;2023-06-22T00:49:58;100830.72;;;18.85;93.36
13705;BME280;6924;52.122;9.952;2023-06-22T00:52:27;100830.13;;;18.79;93.50
13705;BME280;6924;52.122;9.952;2023-06-22T00:54:56;100825.09;;;18.76;93.73
13705;BME280;6924;52.122;9.952;2023-06-22T00:57:24;100822.13;;;18.73;93.70
13705;BME280;6924;52.122;9.952;2023-06-22T00:59:53;100813.06;;;18.71;94.29
13705;BME280;6924;52.122;9.952;2023-06-22T01:02:20;100814.03;;;18.63;94.75
13705;BME280;6924;52.122;9.952;2023-06-22T01:04:47;100823.31;;;18.44;95.70
13705;BME280;6924;52.122;9.952;2023-06-22T01:07:21;100813.88;;;18.43;96.28
13705;BME280;6924;52.122;9.952;2023-06-22T01:09:59;100813.88;;;18.43;96.43
13705;BME280;6924;52.122;9.952;2023-06-22T01:12:32;100810.44;;;18.37;97.06
13705;BME280;6924;52.122;9.952;2023-06-22T01:15:04;100800.88;;;18.33;97.82
13705;BME280;6924;52.122;9.952;2023-06-22T01:17:35;100808.19;;;18.31;98.58
13705;BME280;6924;52.122;9.952;2023-06-22T01:20:04;100803.41;;;18.23;99.43
13705;BME280;6924;52.122;9.952;2023-06-22T01:22:40;100793.75;;;18.27;100.00
13705;BME280;6924;52.122;9.952;2023-06-22T01:25:15;100783.38;;;18.23;99.80
13705;BME280;6924;52.122;9.952;2023-06-22T01:27:52;100793.41;;;18.16;100.00
13705;BME280;6924;52.122;9.952;2023-06-22T01:30:20;100798.44;;;18.20;100.00
13705;BME280;6924;52.122;9.952;2023-06-22T01:32:48;100801.28;;;18.20;100.00
13705;BME280;6924;52.122;9.952;2023-06-22T01:35:16;100796.88;;;18.22;100.00
13705;BME280;6924;52.122;9.952;2023-06-22T01:37:44;100802.13;;;18.20;100.00
13705;BME280;6924;52.122;9.952;2023-06-22T01:40:11;100807.28;;;18.14;100.00
13705;BME280;6924;52.122;9.952;2023-06-22T01:42:39;100802.00;;;18.16;100.00
13705;BME280;6924;52.122;9.952;2023-06-22T01:45:07;100797.47;;;18.15;100.00
13705;BME280;6924;52.122;9.952;2023-06-22T01:47:35;100805.13;;;18.11;100.00
13705;BME280;6924;52.122;9.952;2023-06-22T01:50:02;100808.81;;;18.12;100.00
13705;BME280;6924;52.122;9.952;2023-06-22T01:52:28;100808.44;;;18.13;100.00
13705;BME280;6924;52.122;9.952;2023-06-22T01:54:56;100796.66;;;18.15;100.00
13705;BME280;6924;52.122;9.952;2023-06-22T01:57:23;100788.06;;;18.15;100.00
13705;BME280;6924;52.122;9.952;2023-06-22T01:59:57;100792.38;;;18.09;100.00
13705;BME280;6924;52.122;9.952;2023-06-22T02:02:27;100796.19;;;18.13;100.00
13705;BME280;6924;52.122;9.952;2023-06-22T02:04:59;100794.63;;;18.15;100.00
13705;BME280;6924;52.122;9.952;2023-06-22T02:07:31;100793.78;;;18.03;100.00
13705;BME280;6924;52.122;9.952;2023-06-22T02:09:59;100800.13;;;18.08;100.00
13705;BME280;6924;52.122;9.952;2023-06-22T02:12:27;100800.47;;;18.07;100.00
13705;BME280;6924;52.122;9.952;2023-06-22T02:14:54;100809.19;;;18.10;100.00
13705;BME280;6924;52.122;9.952;2023-06-22T02:17:21;100807.97;;;18.11;100.00
13705;BME280;6924;52.122;9.952;2023-06-22T02:19:48;100803.06;;;18.12;100.00
13705;BME280;6924;52.122;9.952;2023-06-22T02:22:16;100803.94;;;18.12;100.00
13705;BME280;6924;52.122;9.952;2023-06-22T02:24:42;100805.13;;;18.11;100.00
13705;BME280;6924;52.122;9.952;2023-06-22T02:27:09;100813.56;;;18.08;100.00
13705;BME280;6924;52.122;9.952;2023-06-22T02:29:37;100814.91;;;17.98;100.00
13705;BME280;6924;52.122;9.952;2023-06-22T02:32:04;100818.97;;;17.97;100.00
13705;BME280;6924;52.122;9.952;2023-06-22T02:34:31;100824.31;;;17.99;100.00
13705;BME280;6924;52.122;9.952;2023-06-22T02:36:59;100825.63;;;18.01;100.00
13705;BME280;6924;52.122;9.952;2023-06-22T02:39:29;100815.25;;;17.96;100.00
13705;BME280;6924;52.122;9.952;2023-06-22T02:41:56;100824.69;;;17.85;100.00
13705;BME280;6924;52.122;9.952;2023-06-22T02:44:22;100835.16;;;17.81;100.00
13705;BME280;6924;52.122;9.952;2023-06-22T02:46:49;100841.38;;;17.83;100.00
13705;BME280;6924;52.122;9.952;2023-06-22T02:49:15;100848.78;;;17.84;100.00
13705;BME280;6924;52.122;9.952;2023-06-22T02:51:46;100852.09;;;17.86;100.00
13705;BME280;6924;52.122;9.952;2023-06-22T02:54:13;100848.31;;;17.82;100.00
13705;BME280;6924;52.122;9.952;2023-06-22T02:56:41;100849.47;;;17.81;100.00
13705;BME280;6924;52.122;9.952;2023-06-22T02:59:09;100846.59;;;17.81;100.00
13705;BME280;6924;52.122;9.952;2023-06-22T03:01:36;100855.19;;;17.81;100.00
13705;BME280;6924;52.122;9.952;2023-06-22T03:04:05;100854.34;;;17.80;100.00
13705;BME280;6924;52.122;9.952;2023-06-22T03:06:31;100857.81;;;17.73;100.00
13705;BME280;6924;52.122;9.952;2023-06-22T03:08:59;100853.41;;;17.76;100.00
13705;BME280;6924;52.122;9.952;2023-06-22T03:11:26;100857.09;;;17.76;100.00
13705;BME280;6924;52.122;9.952;2023-06-22T03:13:54;100866.16;;;17.79;100.00
13705;BME280;6924;52.122;9.952;2023-06-22T03:16:20;100866.31;;;17.82;100.00
13705;BME280;6924;52.122;9.952;2023-06-22T03:18:47;100866.63;;;17.81;100.00
13705;BME280;6924;52.122;9.952;2023-06-22T03:21:13;100861.25;;;17.79;100.00
13705;BME280;6924;52.122;9.952;2023-06-22T03:23:40;100863.75;;;17.81;100.00
13705;BME280;6924;52.122;9.952;2023-06-22T03:26:07;100867.44;;;17.81;100.00
13705;BME280;6924;52.122;9.952;2023-06-22T03:28:34;100856.00;;;17.81;100.00
13705;BME280;6924;52.122;9.952;2023-06-22T03:31:03;100859.25;;;17.80;100.00
13705;BME280;6924;52.122;9.952;2023-06-22T03:33:29;100864.00;;;17.75;100.00
13705;BME280;6924;52.122;9.952;2023-06-22T03:35:56;100858.16;;;17.72;100.00
13705;BME280;6924;52.122;9.952;2023-06-22T03:38:22;100862.81;;;17.76;100.00
13705;BME280;6924;52.122;9.952;2023-06-22T03:40:49;100857.47;;;17.75;100.00
13705;BME280;6924;52.122;9.952;2023-06-22T03:43:15;100856.13;;;17.72;100.00
13705;BME280;6924;52.122;9.952;2023-06-22T03:45:41;100848.28;;;17.69;100.00
13705;BME280;6924;52.122;9.952;2023-06-22T03:48:12;100845.63;;;17.76;100.00
13705;BME280;6924;52.122;9.952;2023-06-22T03:50:38;100841.69;;;17.81;100.00
13705;BME280;6924;52.122;9.952;2023-06-22T03:53:05;100846.28;;;17.82;100.00
13705;BME280;6924;52.122;9.952;2023-06-22T03:55:31;100846.59;;;17.81;100.00
13705;BME280;6924;52.122;9.952;2023-06-22T03:57:57;100845.06;;;17.83;100.00
13705;BME280;6924;52.122;9.952;2023-06-22T04:00:31;100848.06;;;17.87;100.00
13705;BME280;6924;52.122;9.952;2023-06-22T04:02:57;100847.00;;;17.91;100.00
13705;BME280;6924;52.122;9.952;2023-06-22T04:05:25;100849.97;;;17.95;100.00
13705;BME280;6924;52.122;9.952;2023-06-22T04:07:51;100839.38;;;17.95;100.00
13705;BME280;6924;52.122;9.952;2023-06-22T04:10:18;100843.53;;;17.98;100.00
13705;BME280;6924;52.122;9.952;2023-06-22T04:12:44;100833.78;;;17.99;100.00
13705;BME280;6924;52.122;9.952;2023-06-22T04:15:10;100854.63;;;18.00;100.00
13705;BME280;6924;52.122;9.952;2023-06-22T04:17:37;100847.34;;;18.02;100.00
13705;BME280;6924;52.122;9.952;2023-06-22T04:20:05;100851.50;;;18.05;100.00
13705;BME280;6924;52.122;9.952;2023-06-22T04:22:33;100846.28;;;18.07;100.00
13705;BME280;6924;52.122;9.952;2023-06-22T04:24:59;100847.56;;;18.09;100.00
13705;BME280;6924;52.122;9.952;2023-06-22T04:27:26;100849.25;;;18.10;100.00
13705;BME280;6924;52.122;9.952;2023-06-22T04:29:52;100847.22;;;18.11;100.00
13705;BME280;6924;52.122;9.952;2023-06-22T04:32:19;100849.34;;;18.14;100.00
13705;BME280;6924;52.122;9.952;2023-06-22T04:34:45;100854.72;;;18.15;100.00
13705;BME280;6924;52.122;9.952;2023-06-22T04:37:12;100844.09;;;18.16;100.00
13705;BME280;6924;52.122;9.952;2023-06-22T04:39:42;100843.28;;;18.15;100.00
13705;BME280;6924;52.122;9.952;2023-06-22T04:42:08;100838.84;;;18.18;100.00
13705;BME280;6924;52.122;9.952;2023-06-22T04:44:34;100833.59;;;18.20;100.00
13705;BME280;6924;52.122;9.952;2023-06-22T04:47:01;100839.06;;;18.25;100.00
13705;BME280;6924;52.122;9.952;2023-06-22T04:49:30;100832.66;;;18.28;100.00
13705;BME280;6924;52.122;9.952;2023-06-22T04:52:00;100840.50;;;18.31;100.00
13705;BME280;6924;52.122;9.952;2023-06-22T04:54:26;100838.94;;;18.34;100.00
13705;BME280;6924;52.122;9.952;2023-06-22T04:56:54;100843.97;;;18.37;100.00
13705;BME280;6924;52.122;9.952;2023-06-22T04:59:22;100833.81;;;18.40;100.00
13705;BME280;6924;52.122;9.952;2023-06-22T05:01:53;100837.16;;;18.42;100.00
13705;BME280;6924;52.122;9.952;2023-06-22T05:04:20;100841.31;;;18.44;100.00
13705;BME280;6924;52.122;9.952;2023-06-22T05:06:46;100833.66;;;18.48;100.00
13705;BME280;6924;52.122;9.952;2023-06-22T05:09:12;100832.47;;;18.49;100.00
13705;BME280;6924;52.122;9.952;2023-06-22T05:11:39;100824.34;;;18.51;100.00
13705;BME280;6924;52.122;9.952;2023-06-22T05:14:07;100824.47;;;18.55;100.00
13705;BME280;6924;52.122;9.952;2023-06-22T05:16:33;100822.06;;;18.57;100.00
13705;BME280;6924;52.122;9.952;2023-06-22T05:19:00;100826.59;;;18.58;100.00
13705;BME280;6924;52.122;9.952;2023-06-22T05:21:28;100815.25;;;18.62;100.00
13705;BME280;6924;52.122;9.952;2023-06-22T05:23:55;100821.91;;;18.66;100.00
13705;BME280;6924;52.122;9.952;2023-06-22T05:26:25;100827.25;;;18.67;100.00
13705;BME280;6924;52.122;9.952;2023-06-22T05:28:52;100820.34;;;18.68;100.00
13705;BME280;6924;52.122;9.952;2023-06-22T05:31:20;100819.63;;;18.71;100.00
13705;BME280;6924;52.122;9.952;2023-06-22T05:33:47;100821.78;;;18.74;100.00
13705;BME280;6924;52.122;9.952;2023-06-22T05:36:14;100823.91;;;18.77;100.00
13705;BME280;6924;52.122;9.952;2023-06-22T05:38:41;100822.81;;;18.82;100.00
13705;BME280;6924;52.122;9.952;2023-06-22T05:41:08;100820.06;;;18.86;100.00
13705;BME280;6924;52.122;9.952;2023-06-22T05:43:34;100818.50;;;18.88;100.00
13705;BME280;6924;52.122;9.952;2023-06-22T05:46:01;100812.88;;;18.92;100.00
13705;BME280;6924;52.122;9.952;2023-06-22T05:48:29;100819.53;;;18.96;100.00
13705;BME280;6924;52.122;9.952;2023-06-22T05:50:56;100820.84;;;18.98;100.00
13705;BME280;6924;52.122;9.952;2023-06-22T05:53:23;100828.72;;;19.02;100.00
13705;BME280;6924;52.122;9.952;2023-06-22T05:55:49;100825.09;;;19.05;100.00
13705;BME280;6924;52.122;9.952;2023-06-22T05:58:16;100819.47;;;19.08;100.00
13705;BME280;6924;52.122;9.952;2023-06-22T06:00:42;100817.06;;;19.10;100.00
13705;BME280;6924;52.122;9.952;2023-06-22T06:03:09;100823.28;;;19.12;100.00
13705;BME280;6924;52.122;9.952;2023-06-22T06:05:38;100817.66;;;19.16;100.00
13705;BME280;6924;52.122;9.952;2023-06-22T06:08:06;100824.69;;;19.18;100.00
13705;BME280;6924;52.122;9.952;2023-06-22T06:10:33;100814.16;;;19.23;100.00
13705;BME280;6924;52.122;9.952;2023-06-22T06:12:59;100808.50;;;19.26;100.00
13705;BME280;6924;52.122;9.952;2023-06-22T06:15:29;100813.50;;;19.29;100.00
13705;BME280;6924;52.122;9.952;2023-06-22T06:17:55;100817.28;;;19.33;100.00
13705;BME280;6924;52.122;9.952;2023-06-22T06:20:23;100818.59;;;19.36;100.00
13705;BME280;6924;52.122;9.952;2023-06-22T06:22:51;100812.13;;;19.39;100.00
13705;BME280;6924;52.122;9.952;2023-06-22T06:25:18;100810.19;;;19.43;100.00
13705;BME280;6924;52.122;9.952;2023-06-22T06:27:47;100797.13;;;19.46;100.00
13705;BME280;6924;52.122;9.952;2023-06-22T06:30:15;100801.28;;;19.48;100.00
13705;BME280;6924;52.122;9.952;2023-06-22T06:32:43;100798.13;;;19.53;100.00
13705;BME280;6924;52.122;9.952;2023-06-22T06:35:11;100805.66;;;19.58;100.00
13705;BME280;6924;52.122;9.952;2023-06-22T06:37:39;100813.16;;;19.63;100.00
13705;BME280;6924;52.122;9.952;2023-06-22T06:40:08;100810.00;;;19.68;100.00
13705;BME280;6924;52.122;9.952;2023-06-22T06:42:36;100820.75;;;19.71;100.00
13705;BME280;6924;52.122;9.952;2023-06-22T06:45:03;100813.06;;;19.75;100.00
13705;BME280;6924;52.122;9.952;2023-06-22T06:47:30;100804.56;;;19.78;100.00
13705;BME280;6924;52.122;9.952;2023-06-22T06:49:56;100803.06;;;19.85;100.00
13705;BME280;6924;52.122;9.952;2023-06-22T06:52:23;100806.47;;;19.90;100.00
13705;BME280;6924;52.122;9.952;2023-06-22T06:54:49;100807.03;;;19.96;100.00
13705;BME280;6924;52.122;9.952;2023-06-22T06:57:18;100808.03;;;20.03;100.00
13705;BME280;6924;52.122;9.952;2023-06-22T06:59:45;100804.94;;;20.12;100.00
13705;BME280;6924;52.122;9.952;2023-06-22T07:02:12;100799.66;;;20.14;100.00
13705;BME280;6924;52.122;9.952;2023-06-22T07:04:40;100796.06;;;20.17;100.00
13705;BME280;6924;52.122;9.952;2023-06-22T07:07:06;100799.81;;;20.21;100.00
13705;BME280;6924;52.122;9.952;2023-06-22T07:09:32;100795.81;;;20.26;100.00
13705;BME280;6924;52.122;9.952;2023-06-22T07:11:59;100795.53;;;20.31;100.00
13705;BME280;6924;52.122;9.952;2023-06-22T07:14:26;100799.69;;;20.34;100.00
13705;BME280;6924;52.122;9.952;2023-06-22T07:16:53;100804.63;;;20.33;100.00
13705;BME280;6924;52.122;9.952;2023-06-22T07:19:24;100799.69;;;20.34;100.00
13705;BME280;6924;52.122;9.952;2023-06-22T07:21:51;100800.16;;;20.36;100.00
13705;BME280;6924;52.122;9.952;2023-06-22T07:24:17;100802.28;;;20.39;100.00
13705;BME280;6924;52.122;9.952;2023-06-22T07:26:45;100801.53;;;20.42;100.00
13705;BME280;6924;52.122;9.952;2023-06-22T07:29:11;100799.13;;;20.44;100.00
13705;BME280;6924;52.122;9.952;2023-06-22T07:31:39;100794.72;;;20.50;100.00
13705;BME280;6924;52.122;9.952;2023-06-22T07:34:06;100795.63;;;20.54;99.22
13705;BME280;6924;52.122;9.952;2023-06-22T07:36:32;100797.69;;;20.54;98.91
13705;BME280;6924;52.122;9.952;2023-06-22T07:39:00;100795.75;;;20.58;98.56
13705;BME280;6924;52.122;9.952;2023-06-22T07:41:27;100797.03;;;20.60;99.41
13705;BME280;6924;52.122;9.952;2023-06-22T07:43:54;100802.84;;;20.64;99.43
13705;BME280;6924;52.122;9.952;2023-06-22T07:46:20;100806.25;;;20.70;99.84
13705;BME280;6924;52.122;9.952;2023-06-22T07:48:48;100801.72;;;20.69;99.27
13705;BME280;6924;52.122;9.952;2023-06-22T07:51:15;100801.78;;;20.72;97.32
13705;BME280;6924;52.122;9.952;2023-06-22T07:53:42;100800.59;;;20.73;97.28
13705;BME280;6924;52.122;9.952;2023-06-22T07:56:09;100802.09;;;20.67;96.63
13705;BME280;6924;52.122;9.952;2023-06-22T07:58:36;100795.16;;;20.68;96.63
13705;BME280;6924;52.122;9.952;2023-06-22T08:01:03;100795.38;;;20.59;94.97
13705;BME280;6924;52.122;9.952;2023-06-22T08:03:29;100792.56;;;20.63;96.10
13705;BME280;6924;52.122;9.952;2023-06-22T08:05:57;100795.16;;;20.68;98.12
13705;BME280;6924;52.122;9.952;2023-06-22T08:08:24;100791.97;;;20.73;98.70
13705;BME280;6924;52.122;9.952;2023-06-22T08:10:50;100793.63;;;20.74;98.73
13705;BME280;6924;52.122;9.952;2023-06-22T08:13:17;100791.59;;;20.75;98.73
13705;BME280;6924;52.122;9.952;2023-06-22T08:15:44;100789.91;;;20.74;98.47
13705;BME280;6924;52.122;9.952;2023-06-22T08:18:11;100787.50;;;20.76;98.47
13705;BME280;6924;52.122;9.952;2023-06-22T08:20:37;100794.16;;;20.80;98.56
13705;BME280;6924;52.122;9.952;2023-06-22T08:23:05;100800.94;;;20.72;98.07
13705;BME280;6924;52.122;9.952;2023-06-22T08:25:31;100798.91;;;20.72;97.24
13705;BME280;6924;52.122;9.952;2023-06-22T08:27:59;100801.94;;;20.79;97.38
13705;BME280;6924;52.122;9.952;2023-06-22T08:30:27;100792.25;;;20.88;97.06
13705;BME280;6924;52.122;9.952;2023-06-22T08:32:53;100796.47;;;20.94;97.20
13705;BME280;6924;52.122;9.952;2023-06-22T08:35:21;100798.22;;;20.98;96.92
13705;BME280;6924;52.122;9.952;2023-06-22T08:37:48;100795.31;;;20.98;97.21
13705;BME280;6924;52.122;9.952;2023-06-22T08:40:19;100803.25;;;21.05;97.25
13705;BME280;6924;52.122;9.952;2023-06-22T08:42:47;100805.84;;;21.10;97.68
13705;BME280;6924;52.122;9.952;2023-06-22T08:45:14;100807.59;;;21.15;97.13
13705;BME280;6924;52.122;9.952;2023-06-22T08:47:41;100804.75;;;21.18;94.18
13705;BME280;6924;52.122;9.952;2023-06-22T08:50:08;100810.91;;;21.17;93.66
13705;BME280;6924;52.122;9.952;2023-06-22T08:52:35;100801.97;;;21.22;93.94
13705;BME280;6924;52.122;9.952;2023-06-22T08:55:02;100795.06;;;21.26;94.52
13705;BME280;6924;52.122;9.952;2023-06-22T08:57:30;100785.28;;;21.31;93.14
13705;BME280;6924;52.122;9.952;2023-06-22T08:59:58;100773.56;;;21.20;92.03
13705;BME280;6924;52.122;9.952;2023-06-22T09:02:24;100780.34;;;21.09;93.05
13705;BME280;6924;52.122;9.952;2023-06-22T09:04:51;100780.47;;;21.16;92.67
13705;BME280;6924;52.122;9.952;2023-06-22T09:07:21;100772.56;;;21.32;92.70
13705;BME280;6924;52.122;9.952;2023-06-22T09:09:49;100752.69;;;21.23;92.50
13705;BME280;6924;52.122;9.952;2023-06-22T09:12:15;100745.38;;;21.30;95.06
13705;BME280;6924;52.122;9.952;2023-06-22T09:14:43;100742.22;;;21.38;92.39
13705;BME280;6924;52.122;9.952;2023-06-22T09:17:09;100747.72;;;21.43;95.66
13705;BME280;6924;52.122;9.952;2023-06-22T09:19:36;100745.13;;;21.61;97.26
13705;BME280;6924;52.122;9.952;2023-06-22T09:22:02;100744.09;;;21.73;95.89
13705;BME280;6924;52.122;9.952;2023-06-22T09:24:31;100737.88;;;21.98;93.76
13705;BME280;6924;52.122;9.952;2023-06-22T09:26:57;100738.75;;;22.02;94.51
13705;BME280;6924;52.122;9.952;2023-06-22T09:29:24;100743.47;;;22.14;93.82
13705;BME280;6924;52.122;9.952;2023-06-22T09:31:52;100742.03;;;22.00;90.55
13705;BME280;6924;52.122;9.952;2023-06-22T09:34:19;100743.47;;;22.14;94.23
13705;BME280;6924;52.122;9.952;2023-06-22T09:36:45;100748.38;;;22.13;93.06
13705;BME280;6924;52.122;9.952;2023-06-22T09:39:12;100742.50;;;22.33;89.19
13705;BME280;6924;52.122;9.952;2023-06-22T09:41:38;100735.97;;;22.36;91.57
13705;BME280;6924;52.122;9.952;2023-06-22T09:44:05;100721.91;;;22.31;92.22
13705;BME280;6924;52.122;9.952;2023-06-22T09:46:31;100730.63;;;22.38;93.54
13705;BME280;6924;52.122;9.952;2023-06-22T09:48:59;100715.75;;;22.32;90.54
13705;BME280;6924;52.122;9.952;2023-06-22T09:51:26;100716.78;;;22.47;91.86
13705;BME280;6924;52.122;9.952;2023-06-22T09:53:52;100718.09;;;22.57;91.23
13705;BME280;6924;52.122;9.952;2023-06-22T09:56:20;100721.25;;;22.78;90.62
13705;BME280;6924;52.122;9.952;2023-06-22T09:58:47;100724.25;;;22.89;88.36
13705;BME280;6924;52.122;9.952;2023-06-22T10:01:15;100712.44;;;23.01;87.99
13705;BME280;6924;52.122;9.952;2023-06-22T10:03:42;100716.63;;;23.07;88.15
13705;BME280;6924;52.122;9.952;2023-06-22T10:06:10;100720.94;;;23.24;88.00
13705;BME280;6924;52.122;9.952;2023-06-22T10:08:36;100725.56;;;23.36;84.99
13705;BME280;6924;52.122;9.952;2023-06-22T10:11:04;100718.63;;;23.48;84.26
13705;BME280;6924;52.122;9.952;2023-06-22T10:13:30;100719.94;;;23.54;86.68
13705;BME280;6924;52.122;9.952;2023-06-22T10:15:57;100717.09;;;23.58;86.36
13705;BME280;6924;52.122;9.952;2023-06-22T10:18:23;100717.59;;;23.74;85.53
13705;BME280;6924;52.122;9.952;2023-06-22T10:20:50;100715.56;;;23.75;84.96
13705;BME280;6924;52.122;9.952;2023-06-22T10:23:18;100718.38;;;23.67;81.77
13705;BME280;6924;52.122;9.952;2023-06-22T10:25:45;100714.34;;;23.76;84.75
13705;BME280;6924;52.122;9.952;2023-06-22T10:28:12;100714.81;;;23.85;84.70
13705;BME280;6924;52.122;9.952;2023-06-22T10:30:38;100711.91;;;23.78;82.75
13705;BME280;6924;52.122;9.952;2023-06-22T10:33:06;100708.13;;;23.73;82.17
13705;BME280;6924;52.122;9.952;2023-06-22T10:35:33;100708.63;;;23.83;82.54
13705;BME280;6924;52.122;9.952;2023-06-22T10:37:59;100699.53;;;23.77;82.07
13705;BME280;6924;52.122;9.952;2023-06-22T10:40:27;100702.50;;;23.91;82.19
13705;BME280;6924;52.122;9.952;2023-06-22T10:42:53;100695.19;;;24.16;83.63
13705;BME280;6924;52.122;9.952;2023-06-22T10:45:20;100686.16;;;24.24;83.28
13705;BME280;6924;52.122;9.952;2023-06-22T10:47:47;100680.84;;;24.37;82.33
13705;BME280;6924;52.122;9.952;2023-06-22T10:50:13;100673.50;;;24.58;80.43
13705;BME280;6924;52.122;9.952;2023-06-22T10:52:39;100674.38;;;24.72;79.44
13705;BME280;6924;52.122;9.952;2023-06-22T10:55:07;100674.00;;;24.88;77.82
13705;BME280;6924;52.122;9.952;2023-06-22T10:57:35;100668.22;;;25.10;79.19
13705;BME280;6924;52.122;9.952;2023-06-22T11:00:05;100662.47;;;25.13;77.10
13705;BME280;6924;52.122;9.952;2023-06-22T11:02:33;100665.34;;;25.24;78.47
13705;BME280;6924;52.122;9.952;2023-06-22T11:05:00;100664.97;;;25.36;76.63
13705;BME280;6924;52.122;9.952;2023-06-22T11:07:26;100663.69;;;25.48;76.15
13705;BME280;6924;52.122;9.952;2023-06-22T11:09:54;100664.13;;;25.50;75.76
13705;BME280;6924;52.122;9.952;2023-06-22T11:12:20;100660.78;;;25.59;74.85
13705;BME280;6924;52.122;9.952;2023-06-22T11:14:48;100655.81;;;25.77;76.45
13705;BME280;6924;52.122;9.952;2023-06-22T11:17:16;100641.31;;;25.95;75.10
13705;BME280;6924;52.122;9.952;2023-06-22T11:19:44;100636.69;;;26.05;72.40
13705;BME280;6924;52.122;9.952;2023-06-22T11:22:10;100630.47;;;26.14;75.00
13705;BME280;6924;52.122;9.952;2023-06-22T11:24:37;100616.81;;;26.04;72.61
13705;BME280;6924;52.122;9.952;2023-06-22T11:27:04;100611.09;;;25.93;74.28
13705;BME280;6924;52.122;9.952;2023-06-22T11:29:30;100602.31;;;26.11;76.34
13705;BME280;6924;52.122;9.952;2023-06-22T11:31:58;100606.34;;;26.31;73.50
13705;BME280;6924;52.122;9.952;2023-06-22T11:34:24;100597.59;;;26.38;72.06
13705;BME280;6924;52.122;9.952;2023-06-22T11:36:51;100599.22;;;26.43;71.97
13705;BME280;6924;52.122;9.952;2023-06-22T11:39:17;100594.63;;;26.53;71.82
13705;BME280;6924;52.122;9.952;2023-06-22T11:41:44;100588.44;;;26.47;70.34
13705;BME280;6924;52.122;9.952;2023-06-22T11:44:10;100580.13;;;26.53;72.33
13705;BME280;6924;52.122;9.952;2023-06-22T11:46:37;100576.81;;;26.58;71.71
13705;BME280;6924;52.122;9.952;2023-06-22T11:49:04;100569.41;;;26.46;70.83
13705;BME280;6924;52.122;9.952;2023-06-22T11:51:31;100566.91;;;26.45;71.04
13705;BME280;6924;52.122;9.952;2023-06-22T11:53:57;100566.19;;;26.30;73.12
13705;BME280;6924;52.122;9.952;2023-06-22T11:56:24;100560.03;;;26.21;72.17
13705;BME280;6924;52.122;9.952;2023-06-22T11:58:50;100563.69;;;26.32;74.01
13705;BME280;6924;52.122;9.952;2023-06-22T12:01:17;100557.00;;;26.38;71.45
13705;BME280;6924;52.122;9.952;2023-06-22T12:03:43;100549.59;;;26.34;71.01
13705;BME280;6924;52.122;9.952;2023-06-22T12:06:11;100551.22;;;26.38;72.70
13705;BME280;6924;52.122;9.952;2023-06-22T12:08:37;100546.16;;;26.50;71.01
13705;BME280;6924;52.122;9.952;2023-06-22T12:11:04;100536.72;;;26.42;70.62
13705;BME280;6924;52.122;9.952;2023-06-22T12:13:30;100531.19;;;26.62;70.64
13705;BME280;6924;52.122;9.952;2023-06-22T12:15:57;100535.72;;;26.67;69.27
13705;BME280;6924;52.122;9.952;2023-06-22T12:18:23;100533.31;;;26.58;68.61
13705;BME280;6924;52.122;9.952;2023-06-22T12:20:50;100529.16;;;26.52;67.23
13705;BME280;6924;52.122;9.952;2023-06-22T12:23:17;100515.13;;;26.43;68.72
13705;BME280;6924;52.122;9.952;2023-06-22T12:25:45;100515.13;;;26.43;70.21
13705;BME280;6924;52.122;9.952;2023-06-22T12:28:11;100514.75;;;26.41;70.83
13705;BME280;6924;52.122;9.952;2023-06-22T12:30:38;100511.44;;;26.43;71.45
13705;BME280;6924;52.122;9.952;2023-06-22T12:33:04;100507.66;;;26.49;70.84
13705;BME280;6924;52.122;9.952;2023-06-22T12:35:31;100501.34;;;26.65;72.04
13705;BME280;6924;52.122;9.952;2023-06-22T12:37:57;100495.88;;;26.74;73.03
13705;BME280;6924;52.122;9.952;2023-06-22T12:40:25;100502.44;;;26.78;71.21
13705;BME280;6924;52.122;9.952;2023-06-22T12:42:52;100488.78;;;26.79;69.91
13705;BME280;6924;52.122;9.952;2023-06-22T12:45:19;100487.44;;;26.87;69.11
13705;BME280;6924;52.122;9.952;2023-06-22T12:47:46;100486.97;;;26.96;67.86
13705;BME280;6924;52.122;9.952;2023-06-22T12:50:15;100488.16;;;27.02;66.23
13705;BME280;6924;52.122;9.952;2023-06-22T12:52:41;100479.13;;;26.93;65.32
13705;BME280;6924;52.122;9.952;2023-06-22T12:55:08;100484.94;;;26.93;66.65